sensor_id;sensor_type;location;lat;lon;timestamp;temperature;humidity
59857;DHT22;45733;52.668;6.860;2023-04-10T00:01:27;7.20;99.90
59857;DHT22;45733;52.668;6.860;2023-04-10T00:03:56;7.20;99.90
59857;DHT22;45733;52.668;6.860;2023-04-10T00:06:22;7.20;99.90
59857;DHT22;45733;52.668;6.860;2023-04-10T00:08:47;7.10;99.90
59857;DHT22;45733;52.668;6.860;2023-04-10T00:11:13;7.20;99.90
59857;DHT22;45733;52.668;6.860;2023-04-10T00:13:39;7.20;99.90
59857;DHT22;45733;52.668;6.860;2023-04-10T00:16:04;7.10;99.90
59857;DHT22;45733;52.668;6.860;2023-04-10T00:18:30;7.10;99.90
59857;DHT22;45733;52.668;6.860;2023-04-10T00:20:55;7.10;99.90
59857;DHT22;45733;52.668;6.860;2023-04-10T00:23:21;7.00;99.90
59857;DHT22;45733;52.668;6.860;2023-04-10T00:25:48;7.10;99.90
59857;DHT22;45733;52.668;6.860;2023-04-10T00:28:14;7.10;99.90
59857;DHT22;45733;52.668;6.860;2023-04-10T00:30:41;7.00;99.90
59857;DHT22;45733;52.668;6.860;2023-04-10T00:33:07;7.10;99.90
59857;DHT22;45733;52.668;6.860;2023-04-10T00:35:32;7.00;99.90
59857;DHT22;45733;52.668;6.860;2023-04-10T00:37:58;7.10;99.90
59857;DHT22;45733;52.668;6.860;2023-04-10T00:40:23;7.00;99.90
59857;DHT22;45733;52.668;6.860;2023-04-10T00:42:49;7.10;99.90
59857;DHT22;45733;52.668;6.860;2023-04-10T00:45:15;7.00;99.90
59857;DHT22;45733;52.668;6.860;2023-04-10T00:47:40;7.00;99.90
59857;DHT22;45733;52.668;6.860;2023-04-10T00:50:06;7.00;99.90
59857;DHT22;45733;52.668;6.860;2023-04-10T00:52:32;6.90;99.90
59857;DHT22;45733;52.668;6.860;2023-04-10T00:54:57;6.90;99.90
59857;DHT22;45733;52.668;6.860;2023-04-10T00:57:23;6.90;99.90
59857;DHT22;45733;52.668;6.860;2023-04-10T00:59:48;6.80;99.90
59857;DHT22;45733;52.668;6.860;2023-04-10T01:02:16;6.80;99.90
59857;DHT22;45733;52.668;6.860;2023-04-10T01:04:42;6.80;99.90
59857;DHT22;45733;52.668;6.860;2023-04-10T01:07:14;6.70;99.90
59857;DHT22;45733;52.668;6.860;2023-04-10T01:15:02;6.70;99.90
59857;DHT22;45733;52.668;6.860;2023-04-10T01:17:49;6.50;99.90
59857;DHT22;45733;52.668;6.860;2023-04-10T01:20:27;6.60;99.90
59857;DHT22;45733;52.668;6.860;2023-04-10T01:25:33;6.70;99.90
59857;DHT22;45733;52.668;6.860;2023-04-10T01:28:06;6.70;99.90
59857;DHT22;45733;52.668;6.860;2023-04-10T01:30:36;6.60;99.90
59857;DHT22;45733;52.668;6.860;2023-04-10T01:33:01;6.60;99.90
59857;DHT22;45733;52.668;6.860;2023-04-10T01:35:28;6.70;99.90
59857;DHT22;45733;52.668;6.860;2023-04-10T01:37:55;6.70;99.90
59857;DHT22;45733;52.668;6.860;2023-04-10T01:40:21;6.70;99.90
59857;DHT22;45733;52.668;6.860;2023-04-10T01:42:52;6.70;99.90
59857;DHT22;45733;52.668;6.860;2023-04-10T01:45:19;6.60;99.90
59857;DHT22;45733;52.668;6.860;2023-04-10T01:47:46;6.50;99.90
59857;DHT22;45733;52.668;6.860;2023-04-10T01:50:12;6.50;99.90
59857;DHT22;45733;52.668;6.860;2023-04-10T01:52:38;6.60;99.90
59857;DHT22;45733;52.668;6.860;2023-04-10T01:55:04;6.60;99.90
59857;DHT22;45733;52.668;6.860;2023-04-10T01:57:32;6.50;99.90
59857;DHT22;45733;52.668;6.860;2023-04-10T02:00:00;6.60;99.90
59857;DHT22;45733;52.668;6.860;2023-04-10T02:02:29;6.50;99.90
59857;DHT22;45733;52.668;6.860;2023-04-10T02:04:55;6.40;99.90
59857;DHT22;45733;52.668;6.860;2023-04-10T02:07:24;6.50;99.90
59857;DHT22;45733;52.668;6.860;2023-04-10T02:10:00;6.50;99.90
59857;DHT22;45733;52.668;6.860;2023-04-10T02:12:28;6.60;99.90
59857;DHT22;45733;52.668;6.860;2023-04-10T02:14:54;6.60;99.90
59857;DHT22;45733;52.668;6.860;2023-04-10T02:17:25;6.40;99.90
59857;DHT22;45733;52.668;6.860;2023-04-10T02:19:51;6.40;99.90
59857;DHT22;45733;52.668;6.860;2023-04-10T02:22:17;6.60;99.90
59857;DHT22;45733;52.668;6.860;2023-04-10T02:24:43;6.50;99.90
59857;DHT22;45733;52.668;6.860;2023-04-10T02:27:09;6.50;99.90
59857;DHT22;45733;52.668;6.860;2023-04-10T02:29:34;6.50;99.90
59857;DHT22;45733;52.668;6.860;2023-04-10T02:32:00;6.50;99.90
59857;DHT22;45733;52.668;6.860;2023-04-10T02:34:25;6.50;99.90
59857;DHT22;45733;52.668;6.860;2023-04-10T02:36:51;6.50;99.90
59857;DHT22;45733;52.668;6.860;2023-04-10T02:39:17;6.40;99.90
59857;DHT22;45733;52.668;6.860;2023-04-10T02:41:42;6.40;99.90
59857;DHT22;45733;52.668;6.860;2023-04-10T02:44:08;6.40;99.90
59857;DHT22;45733;52.668;6.860;2023-04-10T02:46:33;6.30;99.90
59857;DHT22;45733;52.668;6.860;2023-04-10T02:48:59;6.40;99.90
59857;DHT22;45733;52.668;6.860;2023-04-10T02:51:24;6.40;99.90
59857;DHT22;45733;52.668;6.860;2023-04-10T02:53:50;6.40;99.90
59857;DHT22;45733;52.668;6.860;2023-04-10T02:56:17;6.40;99.90
59857;DHT22;45733;52.668;6.860;2023-04-10T02:58:43;6.40;99.90
59857;DHT22;45733;52.668;6.860;2023-04-10T03:01:10;6.40;99.90
59857;DHT22;45733;52.668;6.860;2023-04-10T03:03:36;6.40;99.90
59857;DHT22;45733;52.668;6.860;2023-04-10T03:06:02;6.40;99.90
59857;DHT22;45733;52.668;6.860;2023-04-10T03:08:27;6.30;99.90
59857;DHT22;45733;52.668;6.860;2023-04-10T03:10:54;6.30;99.90
59857;DHT22;45733;52.668;6.860;2023-04-10T03:13:20;6.30;99.90
59857;DHT22;45733;52.668;6.860;2023-04-10T03:15:47;6.40;99.90
59857;DHT22;45733;52.668;6.860;2023-04-10T03:18:13;6.30;99.90
59857;DHT22;45733;52.668;6.860;2023-04-10T03:20:38;6.30;99.90
59857;DHT22;45733;52.668;6.860;2023-04-10T03:23:04;6.30;99.90
59857;DHT22;45733;52.668;6.860;2023-04-10T03:25:32;6.20;99.90
59857;DHT22;45733;52.668;6.860;2023-04-10T03:27:58;6.20;99.90
59857;DHT22;45733;52.668;6.860;2023-04-10T03:30:23;6.20;99.90
59857;DHT22;45733;52.668;6.860;2023-04-10T03:32:49;6.20;99.90
59857;DHT22;45733;52.668;6.860;2023-04-10T03:35:14;6.20;99.90
59857;DHT22;45733;52.668;6.860;2023-04-10T03:37:40;6.10;99.90
59857;DHT22;45733;52.668;6.860;2023-04-10T03:40:07;6.20;99.90
59857;DHT22;45733;52.668;6.860;2023-04-10T03:42:32;6.20;99.90
59857;DHT22;45733;52.668;6.860;2023-04-10T03:44:58;6.20;99.90
59857;DHT22;45733;52.668;6.860;2023-04-10T03:47:25;6.20;99.90
59857;DHT22;45733;52.668;6.860;2023-04-10T03:49:51;6.10;99.90
59857;DHT22;45733;52.668;6.860;2023-04-10T03:52:16;6.20;99.90
59857;DHT22;45733;52.668;6.860;2023-04-10T03:54:42;6.10;99.90
59857;DHT22;45733;52.668;6.860;2023-04-10T03:57:07;6.10;99.90
59857;DHT22;45733;52.668;6.860;2023-04-10T03:59:33;6.10;99.90
59857;DHT22;45733;52.668;6.860;2023-04-10T04:01:58;6.10;99.90
59857;DHT22;45733;52.668;6.860;2023-04-10T04:04:24;6.10;99.90
59857;DHT22;45733;52.668;6.860;2023-04-10T04:06:50;6.10;99.90
59857;DHT22;45733;52.668;6.860;2023-04-10T04:09:16;6.10;99.90
59857;DHT22;45733;52.668;6.860;2023-04-10T04:11:41;6.10;99.90
59857;DHT22;45733;52.668;6.860;2023-04-10T04:14:07;6.10;99.90
59857;DHT22;45733;52.668;6.860;2023-04-10T04:16:32;6.10;99.90
59857;DHT22;45733;52.668;6.860;2023-04-10T04:18:58;5.90;99.90
59857;DHT22;45733;52.668;6.860;2023-04-10T04:21:23;5.90;99.90
59857;DHT22;45733;52.668;6.860;2023-04-10T04:23:50;5.90;99.90
59857;DHT22;45733;52.668;6.860;2023-04-10T04:26:15;5.90;99.90
59857;DHT22;45733;52.668;6.860;2023-04-10T04:28:41;5.80;99.90
59857;DHT22;45733;52.668;6.860;2023-04-10T04:31:06;5.90;99.90
59857;DHT22;45733;52.668;6.860;2023-04-10T04:33:32;5.80;99.90
59857;DHT22;45733;52.668;6.860;2023-04-10T04:35:57;5.80;99.90
59857;DHT22;45733;52.668;6.860;2023-04-10T04:38:23;5.70;99.90
59857;DHT22;45733;52.668;6.860;2023-04-10T04:40:49;5.80;99.90
59857;DHT22;45733;52.668;6.860;2023-04-10T04:43:14;5.80;99.90
59857;DHT22;45733;52.668;6.860;2023-04-10T04:45:40;5.80;99.90
59857;DHT22;45733;52.668;6.860;2023-04-10T04:48:05;5.70;99.90
59857;DHT22;45733;52.668;6.860;2023-04-10T04:50:31;5.80;99.90
59857;DHT22;45733;52.668;6.860;2023-04-10T04:52:56;5.80;99.90
59857;DHT22;45733;52.668;6.860;2023-04-10T04:55:24;5.80;99.90
59857;DHT22;45733;52.668;6.860;2023-04-10T04:58:02;5.80;99.90
59857;DHT22;45733;52.668;6.860;2023-04-10T05:00:27;5.80;99.90
59857;DHT22;45733;52.668;6.860;2023-04-10T05:02:53;5.80;99.90
59857;DHT22;45733;52.668;6.860;2023-04-10T05:05:19;5.80;99.90
59857;DHT22;45733;52.668;6.860;2023-04-10T05:07:44;5.80;99.90
59857;DHT22;45733;52.668;6.860;2023-04-10T05:10:13;5.80;99.90
59857;DHT22;45733;52.668;6.860;2023-04-10T05:12:38;5.80;99.90
59857;DHT22;45733;52.668;6.860;2023-04-10T05:15:06;5.70;99.90
59857;DHT22;45733;52.668;6.860;2023-04-10T05:17:31;5.80;99.90
59857;DHT22;45733;52.668;6.860;2023-04-10T05:19:57;5.90;99.90
59857;DHT22;45733;52.668;6.860;2023-04-10T05:22:23;5.90;99.90
59857;DHT22;45733;52.668;6.860;2023-04-10T05:24:48;6.00;99.90
59857;DHT22;45733;52.668;6.860;2023-04-10T05:27:14;6.10;99.90
59857;DHT22;45733;52.668;6.860;2023-04-10T05:29:39;6.10;99.90
59857;DHT22;45733;52.668;6.860;2023-04-10T05:32:05;6.10;99.90
59857;DHT22;45733;52.668;6.860;2023-04-10T05:34:30;6.10;99.90
59857;DHT22;45733;52.668;6.860;2023-04-10T05:36:56;6.20;99.90
59857;DHT22;45733;52.668;6.860;2023-04-10T05:39:21;6.20;99.90
59857;DHT22;45733;52.668;6.860;2023-04-10T05:41:47;6.30;99.90
59857;DHT22;45733;52.668;6.860;2023-04-10T05:44:13;6.40;99.90
59857;DHT22;45733;52.668;6.860;2023-04-10T05:46:38;6.50;99.90
59857;DHT22;45733;52.668;6.860;2023-04-10T05:49:04;6.70;99.90
59857;DHT22;45733;52.668;6.860;2023-04-10T05:51:29;6.80;99.90
59857;DHT22;45733;52.668;6.860;2023-04-10T05:53:55;7.00;99.90
59857;DHT22;45733;52.668;6.860;2023-04-10T05:56:20;7.10;99.90
59857;DHT22;45733;52.668;6.860;2023-04-10T05:58:46;7.30;99.90
59857;DHT22;45733;52.668;6.860;2023-04-10T06:01:11;7.50;99.90
59857;DHT22;45733;52.668;6.860;2023-04-10T06:03:37;7.60;99.90
59857;DHT22;45733;52.668;6.860;2023-04-10T06:06:03;7.70;99.90
59857;DHT22;45733;52.668;6.860;2023-04-10T06:08:30;7.80;99.90
59857;DHT22;45733;52.668;6.860;2023-04-10T06:10:55;8.00;99.90
59857;DHT22;45733;52.668;6.860;2023-04-10T06:13:21;8.10;99.90
59857;DHT22;45733;52.668;6.860;2023-04-10T06:15:47;8.10;99.90
59857;DHT22;45733;52.668;6.860;2023-04-10T06:18:12;8.30;99.90
59857;DHT22;45733;52.668;6.860;2023-04-10T06:20:38;8.60;99.90
59857;DHT22;45733;52.668;6.860;2023-04-10T06:23:03;8.80;99.90
59857;DHT22;45733;52.668;6.860;2023-04-10T06:25:29;8.90;99.90
59857;DHT22;45733;52.668;6.860;2023-04-10T06:27:55;9.10;99.90
59857;DHT22;45733;52.668;6.860;2023-04-10T06:30:20;9.20;99.90
59857;DHT22;45733;52.668;6.860;2023-04-10T06:32:46;9.50;99.90
59857;DHT22;45733;52.668;6.860;2023-04-10T06:35:11;9.60;99.90
59857;DHT22;45733;52.668;6.860;2023-04-10T06:37:37;9.70;99.90
59857;DHT22;45733;52.668;6.860;2023-04-10T06:42:28;10.00;99.90
59857;DHT22;45733;52.668;6.860;2023-04-10T06:44:53;10.00;99.90
59857;DHT22;45733;52.668;6.860;2023-04-10T06:47:19;10.30;99.90
59857;DHT22;45733;52.668;6.860;2023-04-10T06:49:45;10.50;99.90
59857;DHT22;45733;52.668;6.860;2023-04-10T06:52:10;10.60;99.90
59857;DHT22;45733;52.668;6.860;2023-04-10T06:54:36;10.60;99.90
59857;DHT22;45733;52.668;6.860;2023-04-10T06:57:01;10.50;99.90
59857;DHT22;45733;52.668;6.860;2023-04-10T06:59:27;10.50;99.90
59857;DHT22;45733;52.668;6.860;2023-04-10T07:01:53;10.40;99.90
59857;DHT22;45733;52.668;6.860;2023-04-10T07:04:19;10.50;99.90
59857;DHT22;45733;52.668;6.860;2023-04-10T07:06:44;10.40;99.90
59857;DHT22;45733;52.668;6.860;2023-04-10T07:09:10;10.40;99.90
59857;DHT22;45733;52.668;6.860;2023-04-10T07:11:36;10.30;99.90
59857;DHT22;45733;52.668;6.860;2023-04-10T07:14:01;10.40;99.90
59857;DHT22;45733;52.668;6.860;2023-04-10T07:16:27;10.50;99.90
59857;DHT22;45733;52.668;6.860;2023-04-10T07:18:53;10.40;99.90
59857;DHT22;45733;52.668;6.860;2023-04-10T07:21:19;10.40;99.90
59857;DHT22;45733;52.668;6.860;2023-04-10T07:23:45;10.50;99.90
59857;DHT22;45733;52.668;6.860;2023-04-10T07:26:11;10.70;99.90
59857;DHT22;45733;52.668;6.860;2023-04-10T07:28:37;10.80;99.90
59857;DHT22;45733;52.668;6.860;2023-04-10T07:31:02;11.00;99.90
59857;DHT22;45733;52.668;6.860;2023-04-10T07:33:28;11.40;99.90
59857;DHT22;45733;52.668;6.860;2023-04-10T07:35:53;11.50;99.90
59857;DHT22;45733;52.668;6.860;2023-04-10T07:38:19;11.50;99.90
59857;DHT22;45733;52.668;6.860;2023-04-10T07:40:45;11.60;99.90
59857;DHT22;45733;52.668;6.860;2023-04-10T07:43:10;11.80;99.90
59857;DHT22;45733;52.668;6.860;2023-04-10T07:45:36;11.70;99.90
59857;DHT22;45733;52.668;6.860;2023-04-10T07:48:02;11.60;99.90
59857;DHT22;45733;52.668;6.860;2023-04-10T07:50:28;11.80;99.90
59857;DHT22;45733;52.668;6.860;2023-04-10T07:52:54;12.10;99.90
59857;DHT22;45733;52.668;6.860;2023-04-10T07:55:20;12.50;99.90
59857;DHT22;45733;52.668;6.860;2023-04-10T07:57:46;12.80;99.90
59857;DHT22;45733;52.668;6.860;2023-04-10T08:00:12;13.00;99.90
59857;DHT22;45733;52.668;6.860;2023-04-10T08:02:37;13.10;99.90
59857;DHT22;45733;52.668;6.860;2023-04-10T08:05:05;13.20;99.90
59857;DHT22;45733;52.668;6.860;2023-04-10T08:07:30;13.30;99.90
59857;DHT22;45733;52.668;6.860;2023-04-10T08:09:56;13.50;99.90
59857;DHT22;45733;52.668;6.860;2023-04-10T08:12:21;13.50;99.90
59857;DHT22;45733;52.668;6.860;2023-04-10T08:14:47;13.70;99.90
59857;DHT22;45733;52.668;6.860;2023-04-10T08:17:13;13.90;99.90
59857;DHT22;45733;52.668;6.860;2023-04-10T08:19:42;14.00;99.90
59857;DHT22;45733;52.668;6.860;2023-04-10T08:22:08;14.20;99.90
59857;DHT22;45733;52.668;6.860;2023-04-10T08:24:33;14.20;99.90
59857;DHT22;45733;52.668;6.860;2023-04-10T08:26:59;14.40;99.90
59857;DHT22;45733;52.668;6.860;2023-04-10T08:29:25;14.50;99.90
59857;DHT22;45733;52.668;6.860;2023-04-10T08:31:50;14.50;99.90
59857;DHT22;45733;52.668;6.860;2023-04-10T08:34:16;14.60;99.90
59857;DHT22;45733;52.668;6.860;2023-04-10T08:36:41;14.90;99.90
59857;DHT22;45733;52.668;6.860;2023-04-10T08:39:07;15.00;99.90
59857;DHT22;45733;52.668;6.860;2023-04-10T08:41:32;15.00;99.90
59857;DHT22;45733;52.668;6.860;2023-04-10T08:43:58;15.10;99.90
59857;DHT22;45733;52.668;6.860;2023-04-10T08:46:23;15.20;99.90
59857;DHT22;45733;52.668;6.860;2023-04-10T08:48:53;15.20;99.90
59857;DHT22;45733;52.668;6.860;2023-04-10T08:51:20;15.10;99.90
59857;DHT22;45733;52.668;6.860;2023-04-10T08:53:47;15.00;99.90
59857;DHT22;45733;52.668;6.860;2023-04-10T08:56:14;15.00;99.90
59857;DHT22;45733;52.668;6.860;2023-04-10T08:58:41;14.80;99.90
59857;DHT22;45733;52.668;6.860;2023-04-10T09:01:07;15.00;99.90
59857;DHT22;45733;52.668;6.860;2023-04-10T09:03:33;15.00;99.90
59857;DHT22;45733;52.668;6.860;2023-04-10T09:06:02;15.10;99.90
59857;DHT22;45733;52.668;6.860;2023-04-10T09:08:28;15.00;99.90
59857;DHT22;45733;52.668;6.860;2023-04-10T09:10:54;15.30;99.90
59857;DHT22;45733;52.668;6.860;2023-04-10T09:13:39;15.40;99.90
59857;DHT22;45733;52.668;6.860;2023-04-10T09:16:05;15.50;99.90
59857;DHT22;45733;52.668;6.860;2023-04-10T09:18:47;15.60;99.90
59857;DHT22;45733;52.668;6.860;2023-04-10T09:21:15;15.50;99.90
59857;DHT22;45733;52.668;6.860;2023-04-10T09:23:42;15.70;99.90
59857;DHT22;45733;52.668;6.860;2023-04-10T09:29:03;16.00;99.90
59857;DHT22;45733;52.668;6.860;2023-04-10T09:31:29;16.40;99.90
59857;DHT22;45733;52.668;6.860;2023-04-10T09:36:33;16.30;99.90
59857;DHT22;45733;52.668;6.860;2023-04-10T09:38:58;16.40;99.90
59857;DHT22;45733;52.668;6.860;2023-04-10T09:41:24;16.40;99.90
59857;DHT22;45733;52.668;6.860;2023-04-10T09:43:52;16.20;99.90
59857;DHT22;45733;52.668;6.860;2023-04-10T09:46:29;16.20;99.90
59857;DHT22;45733;52.668;6.860;2023-04-10T09:48:55;16.50;99.90
59857;DHT22;45733;52.668;6.860;2023-04-10T09:51:28;16.30;99.90
59857;DHT22;45733;52.668;6.860;2023-04-10T09:53:54;16.70;99.90
59857;DHT22;45733;52.668;6.860;2023-04-10T09:56:21;16.40;99.90
59857;DHT22;45733;52.668;6.860;2023-04-10T09:58:47;16.20;99.90
59857;DHT22;45733;52.668;6.860;2023-04-10T10:01:13;15.80;99.90
59857;DHT22;45733;52.668;6.860;2023-04-10T10:03:39;15.70;99.90
59857;DHT22;45733;52.668;6.860;2023-04-10T10:06:05;15.90;99.90
59857;DHT22;45733;52.668;6.860;2023-04-10T10:08:31;16.00;99.90
59857;DHT22;45733;52.668;6.860;2023-04-10T10:10:57;16.40;99.90
59857;DHT22;45733;52.668;6.860;2023-04-10T10:13:27;16.10;99.90
59857;DHT22;45733;52.668;6.860;2023-04-10T10:15:58;16.00;99.90
59857;DHT22;45733;52.668;6.860;2023-04-10T10:21:07;16.30;99.90
59857;DHT22;45733;52.668;6.860;2023-04-10T10:23:33;16.50;99.90
59857;DHT22;45733;52.668;6.860;2023-04-10T10:25:59;16.60;99.90
59857;DHT22;45733;52.668;6.860;2023-04-10T10:28:25;17.00;99.90
59857;DHT22;45733;52.668;6.860;2023-04-10T10:30:52;17.60;99.90
59857;DHT22;45733;52.668;6.860;2023-04-10T10:33:19;17.60;99.90
59857;DHT22;45733;52.668;6.860;2023-04-10T10:35:44;17.20;99.90
59857;DHT22;45733;52.668;6.860;2023-04-10T10:38:10;16.90;99.90
59857;DHT22;45733;52.668;6.860;2023-04-10T10:43:12;17.00;99.90
59857;DHT22;45733;52.668;6.860;2023-04-10T10:48:23;17.00;99.90
59857;DHT22;45733;52.668;6.860;2023-04-10T10:58:45;17.40;99.90
59857;DHT22;45733;52.668;6.860;2023-04-10T11:01:11;17.30;99.90
59857;DHT22;45733;52.668;6.860;2023-04-10T11:03:37;17.40;99.90
59857;DHT22;45733;52.668;6.860;2023-04-10T11:06:06;17.30;99.90
59857;DHT22;45733;52.668;6.860;2023-04-10T11:11:00;17.20;99.90
59857;DHT22;45733;52.668;6.860;2023-04-10T11:13:33;17.00;99.90
59857;DHT22;45733;52.668;6.860;2023-04-10T11:15:59;17.20;99.90
59857;DHT22;45733;52.668;6.860;2023-04-10T11:21:13;17.20;99.90
59857;DHT22;45733;52.668;6.860;2023-04-10T11:31:31;17.10;99.90
59857;DHT22;45733;52.668;6.860;2023-04-10T11:34:01;17.00;99.90
59857;DHT22;45733;52.668;6.860;2023-04-10T11:36:27;17.00;99.90
59857;DHT22;45733;52.668;6.860;2023-04-10T11:39:00;17.00;99.90
59857;DHT22;45733;52.668;6.860;2023-04-10T11:41:39;16.90;99.90
59857;DHT22;45733;52.668;6.860;2023-04-10T11:44:06;16.90;99.90
59857;DHT22;45733;52.668;6.860;2023-04-10T11:46:35;16.80;99.90
59857;DHT22;45733;52.668;6.860;2023-04-10T11:49:02;16.90;99.90
59857;DHT22;45733;52.668;6.860;2023-04-10T11:51:28;17.00;99.90
59857;DHT22;45733;52.668;6.860;2023-04-10T11:54:07;16.90;99.90
59857;DHT22;45733;52.668;6.860;2023-04-10T11:56:33;17.30;99.90
59857;DHT22;45733;52.668;6.860;2023-04-10T11:58:59;17.20;99.90
59857;DHT22;45733;52.668;6.860;2023-04-10T12:01:26;17.30;99.90
59857;DHT22;45733;52.668;6.860;2023-04-10T12:03:52;17.10;99.90
59857;DHT22;45733;52.668;6.860;2023-04-10T12:06:18;17.00;99.90
59857;DHT22;45733;52.668;6.860;2023-04-10T12:08:44;17.10;99.90
59857;DHT22;45733;52.668;6.860;2023-04-10T12:11:12;17.20;99.90
59857;DHT22;45733;52.668;6.860;2023-04-10T12:13:38;17.20;99.90
59857;DHT22;45733;52.668;6.860;2023-04-10T12:16:05;17.50;99.90
59857;DHT22;45733;52.668;6.860;2023-04-10T12:18:31;17.80;99.90
59857;DHT22;45733;52.668;6.860;2023-04-10T12:20:57;17.70;99.90
59857;DHT22;45733;52.668;6.860;2023-04-10T12:23:24;18.10;99.90
59857;DHT22;45733;52.668;6.860;2023-04-10T12:25:50;18.30;99.90
59857;DHT22;45733;52.668;6.860;2023-04-10T12:28:16;18.60;99.90
59857;DHT22;45733;52.668;6.860;2023-04-10T12:30:46;18.70;99.90
59857;DHT22;45733;52.668;6.860;2023-04-10T12:33:12;18.70;99.90
59857;DHT22;45733;52.668;6.860;2023-04-10T12:35:38;18.50;99.90
59857;DHT22;45733;52.668;6.860;2023-04-10T12:38:04;18.50;99.90
59857;DHT22;45733;52.668;6.860;2023-04-10T12:40:30;18.70;99.90
59857;DHT22;45733;52.668;6.860;2023-04-10T12:42:55;19.00;99.90
59857;DHT22;45733;52.668;6.860;2023-04-10T12:45:39;19.30;99.90
59857;DHT22;45733;52.668;6.860;2023-04-10T12:48:06;19.00;99.90
59857;DHT22;45733;52.668;6.860;2023-04-10T12:50:31;19.10;99.90
59857;DHT22;45733;52.668;6.860;2023-04-10T12:53:04;19.10;99.90
59857;DHT22;45733;52.668;6.860;2023-04-10T12:55:31;19.00;99.90
59857;DHT22;45733;52.668;6.860;2023-04-10T12:57:57;18.50;99.50
59857;DHT22;45733;52.668;6.860;2023-04-10T13:00:23;18.40;99.90
59857;DHT22;45733;52.668;6.860;2023-04-10T13:02:49;18.00;99.90
59857;DHT22;45733;52.668;6.860;2023-04-10T13:05:15;17.60;99.90
59857;DHT22;45733;52.668;6.860;2023-04-10T13:07:40;17.60;99.90
59857;DHT22;45733;52.668;6.860;2023-04-10T13:10:06;17.40;99.90
59857;DHT22;45733;52.668;6.860;2023-04-10T13:12:33;17.40;99.90
59857;DHT22;45733;52.668;6.860;2023-04-10T13:15:03;17.30;99.90
59857;DHT22;45733;52.668;6.860;2023-04-10T13:17:29;17.10;99.90
59857;DHT22;45733;52.668;6.860;2023-04-10T13:19:54;17.00;99.90
59857;DHT22;45733;52.668;6.860;2023-04-10T13:22:20;17.10;99.90
59857;DHT22;45733;52.668;6.860;2023-04-10T13:24:45;17.00;99.90
59857;DHT22;45733;52.668;6.860;2023-04-10T13:27:11;16.90;99.90
59857;DHT22;45733;52.668;6.860;2023-04-10T13:29:38;16.90;99.90
59857;DHT22;45733;52.668;6.860;2023-04-10T13:32:04;17.10;99.90
59857;DHT22;45733;52.668;6.860;2023-04-10T13:34:30;17.10;99.90
59857;DHT22;45733;52.668;6.860;2023-04-10T13:36:56;17.10;99.90
59857;DHT22;45733;52.668;6.860;2023-04-10T13:39:22;17.20;99.90
59857;DHT22;45733;52.668;6.860;2023-04-10T13:41:47;17.20;99.90
59857;DHT22;45733;52.668;6.860;2023-04-10T13:44:13;17.20;99.90
59857;DHT22;45733;52.668;6.860;2023-04-10T13:46:38;16.90;99.90
59857;DHT22;45733;52.668;6.860;2023-04-10T13:49:04;16.80;99.90
59857;DHT22;45733;52.668;6.860;2023-04-10T13:51:30;16.80;99.90
59857;DHT22;45733;52.668;6.860;2023-04-10T13:53:55;16.80;99.90
59857;DHT22;45733;52.668;6.860;2023-04-10T13:56:21;16.80;99.90
59857;DHT22;45733;52.668;6.860;2023-04-10T13:58:47;16.90;99.90
59857;DHT22;45733;52.668;6.860;2023-04-10T14:01:13;16.90;99.90
59857;DHT22;45733;52.668;6.860;2023-04-10T14:03:38;16.90;99.90
59857;DHT22;45733;52.668;6.860;2023-04-10T14:06:04;16.90;99.90
59857;DHT22;45733;52.668;6.860;2023-04-10T14:08:29;16.70;99.90
59857;DHT22;45733;52.668;6.860;2023-04-10T14:10:55;16.70;99.90
59857;DHT22;45733;52.668;6.860;2023-04-10T14:13:21;16.70;99.90
59857;DHT22;45733;52.668;6.860;2023-04-10T14:15:46;16.40;99.90
59857;DHT22;45733;52.668;6.860;2023-04-10T14:18:12;16.40;99.90
59857;DHT22;45733;52.668;6.860;2023-04-10T14:20:39;16.30;99.90
59857;DHT22;45733;52.668;6.860;2023-04-10T14:23:06;16.30;99.90
59857;DHT22;45733;52.668;6.860;2023-04-10T14:25:32;16.30;99.90
59857;DHT22;45733;52.668;6.860;2023-04-10T14:27:58;16.30;99.90
59857;DHT22;45733;52.668;6.860;2023-04-10T14:30:24;16.30;99.90
59857;DHT22;45733;52.668;6.860;2023-04-10T14:32:53;16.20;99.90
59857;DHT22;45733;52.668;6.860;2023-04-10T14:35:19;16.20;99.90
59857;DHT22;45733;52.668;6.860;2023-04-10T14:37:44;16.10;99.90
59857;DHT22;45733;52.668;6.860;2023-04-10T14:40:10;16.10;99.90
59857;DHT22;45733;52.668;6.860;2023-04-10T14:42:35;16.00;99.90
59857;DHT22;45733;52.668;6.860;2023-04-10T14:45:01;16.10;99.90
59857;DHT22;45733;52.668;6.860;2023-04-10T14:47:27;16.00;99.90
59857;DHT22;45733;52.668;6.860;2023-04-10T14:49:52;15.90;99.90
59857;DHT22;45733;52.668;6.860;2023-04-10T14:52:18;15.90;99.90
59857;DHT22;45733;52.668;6.860;2023-04-10T14:54:43;15.80;99.90
59857;DHT22;45733;52.668;6.860;2023-04-10T14:57:09;15.70;99.90
59857;DHT22;45733;52.668;6.860;2023-04-10T14:59:36;15.70;99.90
59857;DHT22;45733;52.668;6.860;2023-04-10T15:02:02;15.70;99.90
59857;DHT22;45733;52.668;6.860;2023-04-10T15:04:27;15.70;99.90
59857;DHT22;45733;52.668;6.860;2023-04-10T15:06:53;15.60;99.90
59857;DHT22;45733;52.668;6.860;2023-04-10T15:09:18;15.60;99.90
59857;DHT22;45733;52.668;6.860;2023-04-10T15:11:44;15.60;99.90
59857;DHT22;45733;52.668;6.860;2023-04-10T15:14:11;15.60;99.90
59857;DHT22;45733;52.668;6.860;2023-04-10T15:16:37;15.50;99.90
59857;DHT22;45733;52.668;6.860;2023-04-10T15:19:02;15.50;99.90
59857;DHT22;45733;52.668;6.860;2023-04-10T15:21:28;15.60;99.90
59857;DHT22;45733;52.668;6.860;2023-04-10T15:23:53;15.50;99.90
59857;DHT22;45733;52.668;6.860;2023-04-10T15:26:19;15.50;99.90
59857;DHT22;45733;52.668;6.860;2023-04-10T15:28:45;15.50;99.90
59857;DHT22;45733;52.668;6.860;2023-04-10T15:31:11;15.40;99.90
59857;DHT22;45733;52.668;6.860;2023-04-10T15:33:36;15.40;99.90
59857;DHT22;45733;52.668;6.860;2023-04-10T15:36:03;15.40;99.90
59857;DHT22;45733;52.668;6.860;2023-04-10T15:38:29;15.40;99.90
59857;DHT22;45733;52.668;6.860;2023-04-10T15:40:55;15.40;99.90
59857;DHT22;45733;52.668;6.860;2023-04-10T15:43:21;15.50;99.90
59857;DHT22;45733;52.668;6.860;2023-04-10T15:45:46;15.40;99.90
59857;DHT22;45733;52.668;6.860;2023-04-10T15:48:12;15.50;99.90
59857;DHT22;45733;52.668;6.860;2023-04-10T15:50:38;15.40;99.90
59857;DHT22;45733;52.668;6.860;2023-04-10T15:53:07;15.50;99.90
59857;DHT22;45733;52.668;6.860;2023-04-10T15:55:33;15.40;99.90
59857;DHT22;45733;52.668;6.860;2023-04-10T15:58:02;15.50;99.90
59857;DHT22;45733;52.668;6.860;2023-04-10T16:00:28;15.50;99.90
59857;DHT22;45733;52.668;6.860;2023-04-10T16:02:53;15.50;99.90
59857;DHT22;45733;52.668;6.860;2023-04-10T16:05:19;15.60;99.90
59857;DHT22;45733;52.668;6.860;2023-04-10T16:07:44;15.60;99.90
59857;DHT22;45733;52.668;6.860;2023-04-10T16:10:10;15.60;99.90
59857;DHT22;45733;52.668;6.860;2023-04-10T16:12:36;15.60;99.90
59857;DHT22;45733;52.668;6.860;2023-04-10T16:15:02;15.60;99.90
59857;DHT22;45733;52.668;6.860;2023-04-10T16:17:29;15.50;99.90